createdAt,value
2023-04-21T00:00:26.499Z,17.45
2023-04-21T00:02:54.690Z,16.80
2023-04-21T00:05:23.055Z,17.30
2023-04-21T00:07:51.326Z,18.02
2023-04-21T00:10:19.585Z,18.02
2023-04-21T00:12:48.963Z,16.70
2023-04-21T00:15:17.020Z,16.75
2023-04-21T00:17:45.674Z,17.35
2023-04-21T00:20:14.518Z,18.60
2023-04-21T00:22:42.530Z,16.10
2023-04-21T00:25:11.068Z,18.27
2023-04-21T00:27:39.096Z,16.15
2023-04-21T00:30:10.554Z,16.00
2023-04-21T00:32:38.697Z,15.13
2023-04-21T00:35:07.312Z,17.95
2023-04-21T00:37:35.461Z,17.65
2023-04-21T00:40:05.873Z,17.23
2023-04-21T00:42:33.992Z,18.60
2023-04-21T00:45:03.177Z,15.63
2023-04-21T00:47:33.489Z,16.25
2023-04-21T00:50:01.733Z,17.33
2023-04-21T00:52:30.798Z,17.17
2023-04-21T00:54:59.191Z,19.48
2023-04-21T00:57:28.732Z,20.20
2023-04-21T00:59:56.742Z,16.63
2023-04-21T01:02:26.261Z,17.42
2023-04-21T01:04:55.906Z,16.63
2023-04-21T01:07:26.170Z,19.10
2023-04-21T01:09:54.182Z,16.52
2023-04-21T01:12:22.214Z,18.17
2023-04-21T01:14:50.651Z,18.15
2023-04-21T01:17:19.021Z,17.98
2023-04-21T01:19:49.066Z,17.35
2023-04-21T01:22:18.717Z,16.45
2023-04-21T01:24:49.505Z,16.15
2023-04-21T01:27:19.298Z,16.95
2023-04-21T01:29:49.895Z,18.40
2023-04-21T01:32:19.514Z,18.38
2023-04-21T01:34:47.851Z,18.05
2023-04-21T01:37:19.057Z,16.08
2023-04-21T01:39:52.150Z,16.92
2023-04-21T01:42:20.951Z,17.67
2023-04-21T01:44:49.620Z,18.77
2023-04-21T01:47:19.137Z,16.55
2023-04-21T01:49:47.250Z,16.58
2023-04-21T01:52:15.283Z,16.40
2023-04-21T01:54:44.772Z,15.57
2023-04-21T01:57:13.107Z,17.17
2023-04-21T01:59:41.491Z,16.73
2023-04-21T02:02:10.033Z,17.08
2023-04-21T02:04:38.251Z,17.15
2023-04-21T02:07:07.328Z,23.73
2023-04-21T02:09:35.794Z,17.08
2023-04-21T02:12:05.667Z,15.80
2023-04-21T02:14:33.838Z,16.35
2023-04-21T02:17:03.663Z,16.73
2023-04-21T02:19:32.137Z,15.90
2023-04-21T02:22:00.247Z,17.13
2023-04-21T02:24:28.335Z,16.92
2023-04-21T02:26:57.672Z,16.67
2023-04-21T02:29:27.142Z,15.82
2023-04-21T02:32:03.064Z,18.77
2023-04-21T02:34:33.736Z,16.20
2023-04-21T02:37:02.508Z,15.57
2023-04-21T02:39:30.765Z,15.73
2023-04-21T02:41:59.014Z,15.43
2023-04-21T02:44:30.156Z,16.83
2023-04-21T02:46:58.176Z,16.48
2023-04-21T02:49:26.313Z,16.35
2023-04-21T02:51:55.074Z,16.10
2023-04-21T02:54:23.128Z,15.98
2023-04-21T02:56:51.399Z,15.07
2023-04-21T02:59:19.885Z,14.93
2023-04-21T03:01:49.812Z,15.98
2023-04-21T03:04:18.068Z,15.95
2023-04-21T03:06:46.184Z,16.90
2023-04-21T03:09:14.313Z,14.68
2023-04-21T03:11:42.333Z,15.60
2023-04-21T03:14:10.388Z,15.05
2023-04-21T03:16:38.764Z,16.17
2023-04-21T03:19:08.370Z,15.95
2023-04-21T03:21:38.418Z,15.68
2023-04-21T03:24:07.550Z,14.73
2023-04-21T03:26:35.848Z,15.73
2023-04-21T03:29:03.853Z,17.65
2023-04-21T03:31:31.947Z,15.65
2023-04-21T03:34:00.135Z,14.27
2023-04-21T03:36:29.965Z,15.05
2023-04-21T03:39:03.337Z,14.90
2023-04-21T03:41:37.634Z,15.68
2023-04-21T03:44:05.946Z,15.65
2023-04-21T03:46:34.346Z,14.82
2023-04-21T03:49:17.886Z,13.80
2023-04-21T03:51:47.489Z,13.23
2023-04-21T03:54:15.596Z,13.77
2023-04-21T03:56:43.670Z,14.65
2023-04-21T03:59:11.785Z,14.93
2023-04-21T04:01:39.804Z,14.70
2023-04-21T04:04:08.115Z,15.05
2023-04-21T04:06:36.918Z,15.07
2023-04-21T04:09:06.326Z,14.80
2023-04-21T04:11:34.544Z,15.32
2023-04-21T04:14:02.627Z,16.10
2023-04-21T04:16:31.101Z,14.95
2023-04-21T04:18:59.256Z,13.93
2023-04-21T04:21:27.592Z,15.05
2023-04-21T04:23:55.902Z,17.13
2023-04-21T04:26:25.720Z,14.82
2023-04-21T04:28:56.248Z,14.38
2023-04-21T04:31:25.374Z,13.57
2023-04-21T04:33:55.481Z,15.27
2023-04-21T04:36:24.164Z,13.77
2023-04-21T04:38:52.308Z,15.27
2023-04-21T04:41:20.969Z,14.65
2023-04-21T04:43:51.185Z,15.77
2023-04-21T04:46:20.619Z,15.00
2023-04-21T04:48:49.264Z,14.45
2023-04-21T04:51:17.406Z,13.95
2023-04-21T04:53:45.564Z,15.40
2023-04-21T04:56:13.606Z,15.25
2023-04-21T04:58:41.642Z,13.48
2023-04-21T05:01:14.928Z,15.27
2023-04-21T05:03:43.555Z,13.35
2023-04-21T05:06:12.167Z,14.48
2023-04-21T05:08:41.354Z,14.80
2023-04-21T05:11:09.523Z,13.65
2023-04-21T05:13:39.753Z,13.40
2023-04-21T05:16:10.200Z,14.00
2023-04-21T05:18:39.823Z,14.30
2023-04-21T05:21:08.387Z,13.60
2023-04-21T05:23:36.390Z,13.57
2023-04-21T05:26:05.085Z,13.60
2023-04-21T05:28:33.330Z,13.68
2023-04-21T05:31:01.471Z,14.95
2023-04-21T05:33:31.896Z,13.27
2023-04-21T05:36:01.451Z,12.52
2023-04-21T05:38:29.519Z,13.07
2023-04-21T05:40:57.651Z,13.80
2023-04-21T05:43:25.661Z,13.18
2023-04-21T05:45:53.974Z,13.00
2023-04-21T05:48:22.069Z,13.20
2023-04-21T05:50:50.148Z,13.00
2023-04-21T05:53:19.651Z,12.80
2023-04-21T05:55:47.829Z,13.73
2023-04-21T05:58:15.940Z,13.38
2023-04-21T06:00:43.994Z,12.43
2023-04-21T06:03:12.150Z,13.05
2023-04-21T06:05:40.248Z,12.73
2023-04-21T06:08:08.321Z,13.85
2023-04-21T06:10:37.767Z,13.82
2023-04-21T06:13:05.844Z,14.57
2023-04-21T06:15:33.883Z,12.73
2023-04-21T06:18:01.929Z,12.68
2023-04-21T06:20:30.058Z,13.75
2023-04-21T06:22:58.131Z,13.13
2023-04-21T06:25:26.244Z,12.88
2023-04-21T06:27:56.367Z,12.65
2023-04-21T06:30:24.611Z,13.20
2023-04-21T06:32:52.721Z,14.25
2023-04-21T06:35:20.918Z,13.27
2023-04-21T06:37:48.924Z,17.42
2023-04-21T06:40:17.020Z,14.45
2023-04-21T06:42:45.113Z,13.77
2023-04-21T06:45:14.517Z,14.18
2023-04-21T06:47:42.600Z,15.85
2023-04-21T06:50:11.645Z,12.32
2023-04-21T06:52:39.708Z,24.52
2023-04-21T06:55:08.728Z,16.75
2023-04-21T06:57:36.818Z,13.98
2023-04-21T07:00:06.828Z,14.88
2023-04-21T07:02:36.390Z,12.75
2023-04-21T07:05:04.891Z,16.50
2023-04-21T07:07:32.938Z,17.80
2023-04-21T07:10:01.209Z,16.83
2023-04-21T07:12:29.393Z,15.82
2023-04-21T07:14:57.401Z,16.35
2023-04-21T07:17:25.569Z,20.30
2023-04-21T07:19:55.043Z,15.38
2023-04-21T07:22:23.137Z,17.23
2023-04-21T07:24:51.533Z,20.25
2023-04-21T07:27:20.236Z,20.50
2023-04-21T07:29:48.240Z,19.85
2023-04-21T07:32:16.299Z,19.90
2023-04-21T07:34:46.923Z,20.73
2023-04-21T07:37:16.457Z,21.67
2023-04-21T07:39:44.460Z,23.23
2023-04-21T07:42:12.528Z,22.60
2023-04-21T07:44:40.917Z,22.30
2023-04-21T07:47:09.206Z,23.65
2023-04-21T07:49:37.484Z,24.75
2023-04-21T07:52:05.755Z,25.50
2023-04-21T07:54:35.506Z,23.05
2023-04-21T07:57:03.877Z,26.48
2023-04-21T07:59:32.190Z,24.08
2023-04-21T08:02:00.522Z,25.17
2023-04-21T08:04:29.412Z,26.20
2023-04-21T08:06:58.089Z,29.42
2023-04-21T08:09:27.309Z,33.38
2023-04-21T08:11:58.117Z,25.45
2023-04-21T08:14:27.099Z,27.90
2023-04-21T08:16:57.201Z,28.52
2023-04-21T08:19:25.938Z,28.50
2023-04-21T08:21:54.288Z,27.88
2023-04-21T08:24:22.928Z,29.75
2023-04-21T08:26:51.438Z,30.75
2023-04-21T08:29:21.315Z,30.25
2023-04-21T08:31:49.697Z,43.80
2023-04-21T08:36:48.774Z,28.92
2023-04-21T08:39:17.700Z,29.98
2023-04-21T08:41:46.403Z,33.13
2023-04-21T08:44:15.839Z,31.02
2023-04-21T08:46:46.232Z,31.25
2023-04-21T08:49:19.729Z,32.45
2023-04-21T08:51:49.056Z,32.28
2023-04-21T08:54:17.364Z,39.75
2023-04-21T08:56:45.672Z,42.30
2023-04-21T08:59:13.997Z,34.22
2023-04-21T09:02:12.514Z,42.85
2023-04-21T09:04:42.064Z,40.33
2023-04-21T09:07:11.012Z,44.33
2023-04-21T09:09:55.615Z,41.15
2023-04-21T09:12:24.164Z,35.53
2023-04-21T09:14:52.561Z,40.58
2023-04-21T09:17:24.266Z,40.75
2023-04-21T09:19:52.618Z,38.72
2023-04-21T09:22:20.901Z,39.92
2023-04-21T09:24:49.925Z,39.63
2023-04-21T09:27:18.582Z,44.72
2023-04-21T09:29:50.067Z,49.05
2023-04-21T09:32:19.733Z,42.20
2023-04-21T09:34:49.575Z,37.60
2023-04-21T09:37:19.173Z,37.72
2023-04-21T09:40:03.265Z,38.38
2023-04-21T09:42:37.855Z,38.60
2023-04-21T09:45:32.394Z,42.15
2023-04-21T09:48:00.798Z,41.15
2023-04-21T09:53:04.945Z,33.05
2023-04-21T09:55:35.127Z,36.13
2023-04-21T09:58:05.500Z,41.70
2023-04-21T10:00:39.397Z,37.30
2023-04-21T10:03:11.584Z,39.88
2023-04-21T10:05:43.109Z,32.72
2023-04-21T10:08:12.716Z,45.60
2023-04-21T10:10:41.567Z,38.47
2023-04-21T10:13:16.003Z,50.75
2023-04-21T10:15:44.464Z,36.25
2023-04-21T10:18:14.521Z,32.50
2023-04-21T10:20:58.197Z,34.20
2023-04-21T10:23:34.633Z,35.03
2023-04-21T10:26:04.795Z,28.15
2023-04-21T10:28:44.199Z,27.23
2023-04-21T10:31:34.651Z,28.45
2023-04-21T10:34:35.502Z,28.45
2023-04-21T10:37:19.793Z,26.80
2023-04-21T10:39:54.771Z,25.63
2023-04-21T10:42:34.811Z,12.10
2023-04-21T10:45:13.932Z,7.00
2023-04-21T10:47:45.308Z,6.38
2023-04-21T10:50:16.997Z,6.20
2023-04-21T10:52:48.830Z,5.82
2023-04-21T10:55:17.206Z,6.28
2023-04-21T10:57:46.730Z,6.57
2023-04-21T11:00:20.496Z,6.63
2023-04-21T11:02:56.806Z,60.25
2023-04-21T11:05:36.432Z,9.82
2023-04-21T11:08:16.760Z,6.20
2023-04-21T11:10:56.089Z,6.95
2023-04-21T11:13:26.447Z,6.40
2023-04-21T11:15:59.288Z,6.60
2023-04-21T11:18:49.067Z,6.43
2023-04-21T11:21:20.230Z,5.85
2023-04-21T11:23:54.901Z,5.82
2023-04-21T11:26:34.361Z,6.25
2023-04-21T11:29:10.881Z,6.18
2023-04-21T11:31:41.425Z,6.55
2023-04-21T11:34:09.953Z,6.22
2023-04-21T11:36:39.831Z,6.88
2023-04-21T11:39:11.493Z,6.15
2023-04-21T11:41:42.430Z,5.82
2023-04-21T11:44:11.582Z,6.18
2023-04-21T11:46:46.553Z,6.88
2023-04-21T11:49:17.158Z,5.97
2023-04-21T11:51:46.929Z,6.10
2023-04-21T11:54:22.029Z,6.10
2023-04-21T11:56:50.376Z,6.18
2023-04-21T11:59:25.007Z,5.70
2023-04-21T12:01:55.590Z,5.68
2023-04-21T12:04:25.321Z,5.82
2023-04-21T12:06:59.346Z,5.53
2023-04-21T12:09:29.741Z,5.63
2023-04-21T12:11:59.955Z,6.47
2023-04-21T12:14:28.343Z,5.82
2023-04-21T12:16:58.664Z,5.72
2023-04-21T12:19:36.892Z,5.88
2023-04-21T12:22:09.600Z,5.93
2023-04-21T12:24:39.698Z,5.90
2023-04-21T12:27:09.163Z,5.47
2023-04-21T12:29:38.596Z,5.57
2023-04-21T12:32:07.612Z,9.07
2023-04-21T12:34:36.350Z,5.95
2023-04-21T12:37:06.346Z,6.13
2023-04-21T12:39:35.668Z,6.30
2023-04-21T12:42:06.257Z,5.82
2023-04-21T12:44:34.578Z,5.53
2023-04-21T12:47:02.986Z,6.43
2023-04-21T12:49:31.671Z,5.97
2023-04-21T12:52:00.739Z,6.57
2023-04-21T12:54:29.140Z,6.28
2023-04-21T12:56:58.118Z,6.72
2023-04-21T12:59:28.014Z,6.20
2023-04-21T13:01:56.683Z,6.13
2023-04-21T13:04:25.164Z,6.30
2023-04-21T13:06:53.709Z,5.90
2023-04-21T13:09:21.988Z,6.05
2023-04-21T13:11:51.768Z,6.22
2023-04-21T13:14:20.099Z,6.18
2023-04-21T13:16:49.968Z,6.40
2023-04-21T13:19:18.572Z,5.93
2023-04-21T13:21:46.885Z,6.40
2023-04-21T13:24:15.214Z,5.60
2023-04-21T13:26:43.658Z,5.82
2023-04-21T13:29:12.122Z,5.38
2023-04-21T13:31:40.696Z,5.57
2023-04-21T13:34:11.021Z,5.40
2023-04-21T13:36:39.390Z,5.38
2023-04-21T13:39:11.097Z,5.25
2023-04-21T13:41:39.472Z,5.43
2023-04-21T13:44:07.863Z,5.50
2023-04-21T13:46:36.439Z,5.55
2023-04-21T13:49:04.715Z,4.90
2023-04-21T13:51:34.450Z,5.15
2023-04-21T13:54:02.776Z,5.40
2023-04-21T13:56:31.288Z,5.38
2023-04-21T13:59:00.643Z,5.25
2023-04-21T14:01:29.108Z,5.40
2023-04-21T14:03:57.631Z,5.28
2023-04-21T14:06:26.633Z,5.93
2023-04-21T14:08:56.332Z,5.63
2023-04-21T14:11:24.657Z,5.60
2023-04-21T14:16:28.227Z,5.22
2023-04-21T14:18:56.574Z,5.05
2023-04-21T14:21:25.017Z,5.10
2023-04-21T14:23:53.374Z,5.32
2023-04-21T14:26:23.449Z,4.75
2023-04-21T14:28:51.965Z,5.75
2023-04-21T14:31:22.116Z,5.47
2023-04-21T14:33:50.707Z,5.07
2023-04-21T14:36:19.160Z,6.85
2023-04-21T14:38:47.719Z,5.18
2023-04-21T14:41:15.995Z,7.68
2023-04-21T14:43:47.619Z,5.32
2023-04-21T14:46:17.398Z,5.70
2023-04-21T14:48:45.883Z,5.72
2023-04-21T14:51:14.265Z,6.13
2023-04-21T14:53:42.578Z,5.63
2023-04-21T14:56:11.043Z,4.97
2023-04-21T14:58:39.402Z,4.97
2023-04-21T15:01:10.673Z,5.15
2023-04-21T15:03:39.152Z,5.10
2023-04-21T15:06:07.957Z,5.25
2023-04-21T15:08:36.368Z,4.85
2023-04-21T15:11:05.388Z,6.15
2023-04-21T15:13:34.153Z,5.32
2023-04-21T15:16:02.429Z,6.65
2023-04-21T15:18:32.225Z,5.82
2023-04-21T15:21:00.589Z,5.60
2023-04-21T15:23:29.459Z,5.30
2023-04-21T15:25:58.128Z,5.78
2023-04-21T15:28:26.799Z,5.38
2023-04-21T15:30:55.302Z,5.22
2023-04-21T15:33:23.706Z,5.30
2023-04-21T15:35:53.542Z,5.32
2023-04-21T15:38:22.062Z,5.78
2023-04-21T15:41:00.568Z,5.47
2023-04-21T15:43:29.746Z,5.55
2023-04-21T15:45:58.028Z,5.82
2023-04-21T15:48:26.596Z,6.00
2023-04-21T15:50:59.604Z,5.70
2023-04-21T15:53:28.209Z,5.85
2023-04-21T15:55:56.456Z,5.97
2023-04-21T15:58:24.751Z,5.93
2023-04-21T16:00:53.141Z,5.88
2023-04-21T16:03:22.567Z,5.35
2023-04-21T16:05:51.397Z,5.68
2023-04-21T16:08:21.625Z,5.90
2023-04-21T16:10:49.984Z,5.97
2023-04-21T16:13:18.879Z,5.50
2023-04-21T16:15:47.375Z,7.88
2023-04-21T16:18:15.867Z,7.47
2023-04-21T16:20:46.094Z,6.60
2023-04-21T16:23:15.055Z,6.93
2023-04-21T16:25:45.104Z,6.18
2023-04-21T16:28:13.581Z,5.90
2023-04-21T16:30:43.610Z,6.65
2023-04-21T16:33:13.320Z,10.52
2023-04-21T16:35:41.918Z,7.50
2023-04-21T16:38:10.709Z,6.00
2023-04-21T16:40:38.997Z,6.28
2023-04-21T16:43:08.686Z,6.40
2023-04-21T16:45:37.115Z,6.70
2023-04-21T16:48:05.884Z,6.28
2023-04-21T16:50:34.468Z,6.25
2023-04-21T16:53:02.836Z,6.10
2023-04-21T16:55:31.529Z,6.15
2023-04-21T16:58:00.777Z,6.80
2023-04-21T17:00:31.281Z,6.35
2023-04-21T17:02:59.789Z,6.22
2023-04-21T17:05:28.283Z,5.95
2023-04-21T17:07:56.588Z,5.80
2023-04-21T17:10:27.083Z,6.63
2023-04-21T17:12:55.435Z,6.57
2023-04-21T17:15:23.739Z,6.22
2023-04-21T17:17:53.487Z,6.32
2023-04-21T17:20:22.098Z,5.82
2023-04-21T17:22:50.495Z,6.32
2023-04-21T17:25:18.761Z,6.40
2023-04-21T17:27:47.172Z,6.57
2023-04-21T17:30:15.816Z,6.10
2023-04-21T17:32:44.540Z,6.32
2023-04-21T17:35:14.448Z,6.53
2023-04-21T17:37:42.732Z,6.40
2023-04-21T17:40:12.399Z,6.90
2023-04-21T17:42:41.817Z,6.53
2023-04-21T17:45:10.754Z,6.30
2023-04-21T17:47:39.322Z,6.55
2023-04-21T17:50:09.972Z,5.75
2023-04-21T17:52:39.901Z,6.18
2023-04-21T17:55:08.920Z,6.50
2023-04-21T17:57:37.252Z,6.53
2023-04-21T18:00:08.609Z,6.10
2023-04-21T18:02:37.113Z,6.13
2023-04-21T18:05:06.710Z,6.35
2023-04-21T18:07:35.120Z,6.85
2023-04-21T18:10:05.344Z,6.32
2023-04-21T18:12:33.636Z,7.00
2023-04-21T18:15:02.281Z,6.55
2023-04-21T18:17:30.721Z,6.45
2023-04-21T18:19:58.997Z,6.57
2023-04-21T18:22:27.284Z,6.30
2023-04-21T18:24:55.615Z,6.85
2023-04-21T18:27:26.816Z,6.82
2023-04-21T18:29:55.157Z,7.05
2023-04-21T18:32:23.381Z,6.53
2023-04-21T18:34:51.728Z,7.13
2023-04-21T18:37:20.046Z,7.22
2023-04-21T18:39:48.303Z,7.20
2023-04-21T18:42:16.560Z,7.22
2023-04-21T18:44:46.237Z,6.90
2023-04-21T18:47:15.566Z,6.97
2023-04-21T18:49:45.243Z,6.78
2023-04-21T18:52:15.237Z,7.25
2023-04-21T18:54:43.583Z,7.28
2023-04-21T18:57:12.007Z,7.72
2023-04-21T18:59:40.282Z,6.78
2023-04-21T19:02:13.599Z,7.53
2023-04-21T19:04:43.861Z,7.15
2023-04-21T19:07:12.716Z,8.10
2023-04-21T19:09:40.957Z,7.70
2023-04-21T19:12:09.354Z,7.55
2023-04-21T19:14:46.484Z,7.50
2023-04-21T19:17:17.268Z,7.78
2023-04-21T19:19:45.568Z,7.50
2023-04-21T19:22:13.910Z,7.80
2023-04-21T19:24:42.232Z,7.72
2023-04-21T19:27:10.766Z,8.27
2023-04-21T19:29:39.102Z,7.95
2023-04-21T19:32:08.279Z,7.85
2023-04-21T19:34:38.236Z,7.70
2023-04-21T19:37:06.962Z,7.75
2023-04-21T19:39:35.301Z,7.32
2023-04-21T19:42:03.697Z,7.35
2023-04-21T19:44:31.973Z,7.95
2023-04-21T19:47:00.957Z,8.07
2023-04-21T19:49:29.388Z,7.60
2023-04-21T19:51:59.043Z,8.05
2023-04-21T19:54:27.470Z,8.05
2023-04-21T19:56:56.499Z,8.18
2023-04-21T19:59:24.796Z,7.75
2023-04-21T20:01:53.060Z,8.38
2023-04-21T20:04:21.509Z,8.60
2023-04-21T20:06:50.152Z,7.88
2023-04-21T20:09:19.952Z,7.65
2023-04-21T20:11:48.326Z,7.97
2023-04-21T20:14:17.121Z,8.05
2023-04-21T20:16:46.437Z,8.43
2023-04-21T20:19:17.344Z,8.77
2023-04-21T20:21:45.774Z,8.68
2023-04-21T20:24:14.040Z,9.27
2023-04-21T20:26:43.735Z,8.77
2023-04-21T20:29:11.977Z,9.57
2023-04-21T20:31:40.347Z,9.55
2023-04-21T20:34:08.829Z,9.75
2023-04-21T20:36:37.988Z,9.52
2023-04-21T20:39:06.973Z,9.25
2023-04-21T20:41:35.196Z,9.57
2023-04-21T20:44:06.203Z,9.50
2023-04-21T20:46:34.587Z,8.93
2023-04-21T20:49:02.773Z,9.57
2023-04-21T20:51:32.523Z,9.88
2023-04-21T20:54:01.053Z,9.68
2023-04-21T20:56:29.389Z,9.68
2023-04-21T20:58:57.692Z,9.45
2023-04-21T21:01:30.039Z,9.82
2023-04-21T21:04:01.370Z,9.10
2023-04-21T21:06:30.096Z,9.25
2023-04-21T21:08:58.442Z,9.63
2023-04-21T21:11:26.754Z,9.20
2023-04-21T21:13:55.062Z,9.30
2023-04-21T21:16:23.930Z,9.02
2023-04-21T21:18:53.761Z,8.88
2023-04-21T21:21:22.092Z,9.52
2023-04-21T21:23:50.490Z,9.38
2023-04-21T21:26:18.887Z,8.63
2023-04-21T21:28:47.243Z,9.65
2023-04-21T21:31:15.559Z,8.88
2023-04-21T21:33:43.929Z,8.55
2023-04-21T21:36:13.689Z,9.05
2023-04-21T21:38:42.061Z,9.18
2023-04-21T21:41:12.265Z,8.95
2023-04-21T21:43:40.582Z,8.80
2023-04-21T21:46:09.564Z,9.38
2023-04-21T21:48:37.831Z,8.88
2023-04-21T21:51:06.313Z,8.63
2023-04-21T21:53:35.938Z,9.25
2023-04-21T21:56:04.211Z,8.60
2023-04-21T21:58:32.743Z,8.77
2023-04-21T22:01:01.063Z,9.35
2023-04-21T22:03:29.625Z,9.68
2023-04-21T22:05:58.152Z,8.88
2023-04-21T22:08:26.874Z,9.35
2023-04-21T22:11:01.378Z,9.15
2023-04-21T22:13:29.702Z,9.02
2023-04-21T22:15:58.021Z,9.57
2023-04-21T22:18:27.135Z,8.75
2023-04-21T22:20:55.512Z,8.65
2023-04-21T22:23:23.797Z,8.82
2023-04-21T22:25:52.490Z,8.63
2023-04-21T22:28:22.149Z,8.63
2023-04-21T22:30:50.501Z,9.50
2023-04-21T22:33:18.823Z,8.82
2023-04-21T22:35:47.080Z,9.65
2023-04-21T22:38:15.405Z,8.88
2023-04-21T22:40:43.760Z,9.93
2023-04-21T22:43:12.197Z,9.93
2023-04-21T22:45:43.020Z,8.90
2023-04-21T22:48:11.426Z,8.70
2023-04-21T22:50:39.738Z,8.70
2023-04-21T22:53:08.064Z,8.65
2023-04-21T22:55:36.668Z,8.80
2023-04-21T22:58:04.897Z,9.35
2023-04-21T23:00:33.323Z,9.00
2023-04-21T23:03:03.091Z,9.35
2023-04-21T23:05:31.543Z,9.02
2023-04-21T23:07:59.825Z,8.73
2023-04-21T23:10:29.217Z,8.98
2023-04-21T23:12:57.731Z,8.75
2023-04-21T23:15:26.908Z,8.32
2023-04-21T23:17:55.293Z,8.88
2023-04-21T23:20:25.084Z,8.73
2023-04-21T23:22:53.400Z,8.55
2023-04-21T23:25:21.935Z,8.00
2023-04-21T23:27:50.303Z,8.60
2023-04-21T23:30:18.708Z,8.73
2023-04-21T23:32:47.113Z,8.75
2023-04-21T23:35:15.512Z,8.60
2023-04-21T23:37:46.536Z,8.93
2023-04-21T23:40:15.192Z,9.00
2023-04-21T23:42:47.166Z,8.50
2023-04-21T23:45:16.164Z,9.02
2023-04-21T23:47:45.751Z,8.77
2023-04-21T23:50:14.223Z,8.95
2023-04-21T23:52:44.214Z,10.10
2023-04-21T23:55:16.343Z,9.20
2023-04-21T23:57:46.858Z,9.48
